Current KBOS METAR: KBOS 220754Z 24004KT 10SM FEW023 FEW250 16/16 A3019 RMK A02 SLP223 T01610156

Landing Runways: 4R (Jet Aircraft Only), 4L (Non-Jet Aircraft Only)

Departing Runways: 9, 4R, 4L (Non-Jet Aircraft)